Time;durP1;ratioP1;P1;durP2;ratioP2;P2;SDS_P1;SDS_P2;PMS_P1;PMS_P2;Temp;Humidity;BMP_temperature;BMP_pressure;BME280_temperature;BME280_humidity;BME280_pressure;Samples;Min_cycle;Max_cycle;Signal;HPM_P1;HPM_P2
2020/12/12 00:00:23;;;;;;;2.15;1.95;;;17.10;55.00;;;;;;5066434;28;20225;-61
2020/12/12 00:02:49;;;;;;;2.45;1.75;;;17.10;55.00;;;;;;5066376;28;20175;-60
2020/12/12 00:05:15;;;;;;;2.15;2.00;;;17.10;55.10;;;;;;5066113;28;20981;-61
2020/12/12 00:07:40;;;;;;;2.03;1.85;;;17.10;55.00;;;;;;5066198;28;20206;-60
2020/12/12 00:10:06;;;;;;;2.60;1.55;;;17.00;55.00;;;;;;5066146;28;20636;-61
2020/12/12 00:12:31;;;;;;;2.05;1.80;;;17.00;55.00;;;;;;5066280;28;20593;-61
2020/12/12 00:14:57;;;;;;;2.05;1.85;;;17.00;54.90;;;;;;5066270;28;20601;-61
2020/12/12 00:17:22;;;;;;;1.80;1.70;;;17.00;54.90;;;;;;5048372;28;20183;-61
2020/12/12 00:19:48;;;;;;;1.95;1.80;;;17.00;55.00;;;;;;5065873;28;20539;-62
2020/12/12 00:22:14;;;;;;;1.85;1.75;;;17.00;54.90;;;;;;5066098;28;20692;-62
2020/12/12 00:24:39;;;;;;;2.33;2.13;;;17.00;55.00;;;;;;5066080;28;20205;-60
2020/12/12 00:27:05;;;;;;;2.10;2.00;;;16.90;54.90;;;;;;5066016;28;20667;-61
2020/12/12 00:29:30;;;;;;;1.70;1.60;;;17.00;55.00;;;;;;5065715;28;20170;-61
2020/12/12 00:31:56;;;;;;;1.88;1.77;;;16.90;54.90;;;;;;5065772;28;20174;-61
2020/12/12 00:34:26;;;;;;;1.70;1.60;;;16.90;54.90;;;;;;5065586;28;20225;-60
2020/12/12 00:36:52;;;;;;;2.20;1.90;;;16.90;54.90;;;;;;5065724;28;20186;-60
2020/12/12 00:39:18;;;;;;;2.00;1.90;;;16.90;54.90;;;;;;5065472;28;20174;-61
2020/12/12 00:41:43;;;;;;;2.08;1.98;;;16.90;54.90;;;;;;5065789;28;20193;-62
2020/12/12 00:44:09;;;;;;;2.33;2.13;;;16.90;55.00;;;;;;5065545;28;20224;-62
2020/12/12 00:46:35;;;;;;;3.10;2.20;;;16.80;54.80;;;;;;5047785;28;20179;-61
2020/12/12 00:49:00;;;;;;;2.05;1.90;;;16.80;54.90;;;;;;5065521;28;20178;-61
2020/12/12 00:51:26;;;;;;;2.03;1.77;;;16.80;54.80;;;;;;5065711;28;20177;-61
2020/12/12 00:53:52;;;;;;;2.40;2.20;;;16.80;54.80;;;;;;5065776;28;20653;-61
2020/12/12 00:56:18;;;;;;;2.17;1.98;;;16.80;54.90;;;;;;5065440;28;20253;-61
2020/12/12 00:58:43;;;;;;;2.05;1.83;;;16.80;54.80;;;;;;5065351;28;20193;-61
2020/12/12 01:01:09;;;;;;;2.22;2.05;;;16.80;54.80;;;;;;5065152;28;20187;-61
2020/12/12 01:03:35;;;;;;;2.08;1.98;;;16.80;54.80;;;;;;5065089;28;20171;-61
2020/12/12 01:06:01;;;;;;;2.10;1.92;;;16.70;54.80;;;;;;5065452;28;20539;-61
2020/12/12 01:08:27;;;;;;;2.30;2.15;;;16.80;54.80;;;;;;5064849;28;20182;-62
2020/12/12 01:10:52;;;;;;;2.28;2.08;;;16.70;54.80;;;;;;5065123;28;20543;-61
2020/12/12 01:13:18;;;;;;;1.85;1.75;;;16.70;54.80;;;;;;5065226;28;20175;-61
2020/12/12 01:15:44;;;;;;;2.03;1.92;;;16.70;54.80;;;;;;5065054;28;20174;-61
2020/12/12 01:18:09;;;;;;;2.10;2.00;;;16.70;54.80;;;;;;5064941;28;20582;-62
2020/12/12 01:20:36;;;;;;;2.20;2.10;;;16.70;54.80;;;;;;5064825;28;20178;-63
2020/12/12 01:23:01;;;;;;;2.33;1.73;;;16.70;54.90;;;;;;5065114;28;20255;-62
2020/12/12 01:25:27;;;;;;;1.85;1.75;;;16.70;54.80;;;;;;5065130;28;20228;-61
2020/12/12 01:27:52;;;;;;;2.20;2.10;;;16.70;54.80;;;;;;5064899;28;20190;-61
2020/12/12 01:30:18;;;;;;;2.38;2.17;;;16.60;54.70;;;;;;5064594;28;20186;-62
2020/12/12 01:32:43;;;;;;;2.50;2.30;;;16.60;54.80;;;;;;5064322;28;20960;-57
2020/12/12 01:35:09;;;;;;;1.95;1.85;;;16.60;54.70;;;;;;5064476;28;20232;-57
2020/12/12 01:37:35;;;;;;;2.63;2.17;;;16.60;54.80;;;;;;5064755;28;21020;-60
2020/12/12 01:40:00;;;;;;;2.42;2.03;;;16.60;54.80;;;;;;5064523;28;21037;-60
2020/12/12 01:42:26;;;;;;;2.50;2.30;;;16.60;54.80;;;;;;5064536;28;20316;-61
2020/12/12 01:44:55;;;;;;;2.05;1.95;;;16.60;54.80;;;;;;5064342;28;20170;-59
2020/12/12 01:47:21;;;;;;;2.33;2.10;;;16.50;54.70;;;;;;5064153;28;20182;-60
2020/12/12 01:49:49;;;;;;;1.88;1.77;;;16.60;54.70;;;;;;5046206;28;20616;-60
2020/12/12 01:52:15;;;;;;;2.40;2.20;;;16.60;54.80;;;;;;5046681;28;20175;-60
2020/12/12 01:54:40;;;;;;;2.22;2.10;;;16.50;54.70;;;;;;5029889;28;20267;-60
2020/12/12 01:57:06;;;;;;;2.30;2.10;;;16.60;54.80;;;;;;5046124;28;20263;-59
2020/12/12 01:59:31;;;;;;;2.30;2.13;;;16.60;54.80;;;;;;5029566;28;20188;-60
2020/12/12 02:01:58;;;;;;;2.35;2.20;;;16.50;54.70;;;;;;5064089;28;20277;-60
2020/12/12 02:04:24;;;;;;;2.55;2.30;;;16.50;54.70;;;;;;5046608;28;20937;-60
2020/12/12 02:06:50;;;;;;;2.40;2.30;;;16.50;54.70;;;;;;5046377;28;20212;-61
2020/12/12 02:09:16;;;;;;;2.80;2.60;;;16.50;54.70;;;;;;5046427;28;20258;-61
2020/12/12 02:11:41;;;;;;;2.28;2.08;;;16.50;54.80;;;;;;5046283;28;20257;-60
2020/12/12 02:14:09;;;;;;;2.25;2.15;;;16.50;54.80;;;;;;5063809;28;20209;-61
2020/12/12 02:16:51;;;;;;;2.00;1.90;;;16.50;54.80;;;;;;5063923;28;20707;-61
2020/12/12 02:19:16;;;;;;;2.40;2.20;;;16.50;54.80;;;;;;5047282;28;20179;-62
2020/12/12 02:21:42;;;;;;;2.42;2.22;;;16.40;54.70;;;;;;5064305;28;20167;-62
2020/12/12 02:24:07;;;;;;;1.95;1.85;;;16.40;54.70;;;;;;5064071;28;20200;-60
2020/12/12 02:26:33;;;;;;;2.47;2.28;;;16.50;54.70;;;;;;5064163;28;20266;-60
2020/12/12 02:28:58;;;;;;;2.50;2.30;;;16.40;54.70;;;;;;5064115;28;20193;-60
2020/12/12 02:31:25;;;;;;;2.15;2.05;;;16.40;54.70;;;;;;5064220;28;20712;-58
2020/12/12 02:33:50;;;;;;;2.17;2.08;;;16.40;54.70;;;;;;5064018;28;20289;-59
2020/12/12 02:36:16;;;;;;;2.05;1.95;;;16.40;54.70;;;;;;5064180;28;20265;-59
2020/12/12 02:38:42;;;;;;;2.20;2.10;;;16.40;54.70;;;;;;5063629;28;20251;-59
2020/12/12 02:41:08;;;;;;;2.65;2.45;;;16.40;54.70;;;;;;5064093;28;20170;-61
2020/12/12 02:43:34;;;;;;;2.20;2.10;;;16.40;54.70;;;;;;5064137;28;20263;-60
2020/12/12 02:45:59;;;;;;;2.42;2.08;;;16.40;54.70;;;;;;5063942;28;20201;-59
2020/12/12 02:48:25;;;;;;;2.50;2.30;;;16.30;54.70;;;;;;5064067;28;20535;-60
2020/12/12 02:50:50;;;;;;;2.33;2.20;;;16.30;54.80;;;;;;5063846;28;20178;-59
2020/12/12 02:53:16;;;;;;;2.15;2.05;;;16.30;54.70;;;;;;5063370;28;20171;-60
2020/12/12 02:55:42;;;;;;;2.10;2.00;;;16.30;54.70;;;;;;5063811;28;20179;-59
2020/12/12 02:58:07;;;;;;;2.45;2.25;;;16.30;54.70;;;;;;5063590;28;20179;-60
2020/12/12 03:00:33;;;;;;;2.30;2.10;;;16.30;54.70;;;;;;5063655;28;20410;-58
2020/12/12 03:02:58;;;;;;;2.40;2.20;;;16.30;54.80;;;;;;5063819;28;20171;-59
2020/12/12 03:05:24;;;;;;;2.47;2.28;;;16.30;54.70;;;;;;5063581;28;20182;-57
2020/12/12 03:07:49;;;;;;;2.55;2.05;;;16.30;54.70;;;;;;5063439;28;20659;-59
2020/12/12 03:10:15;;;;;;;2.60;2.40;;;16.30;54.70;;;;;;5063148;28;20185;-60
2020/12/12 03:12:40;;;;;;;2.30;2.10;;;16.20;54.70;;;;;;5065198;28;20189;-60
2020/12/12 03:15:07;;;;;;;2.60;2.40;;;16.30;54.70;;;;;;5067164;28;21009;-61
2020/12/12 03:17:33;;;;;;;3.03;2.30;;;16.30;54.70;;;;;;5067151;28;20182;-61
2020/12/12 03:19:58;;;;;;;2.10;2.00;;;16.30;54.70;;;;;;5067024;28;20231;-60
2020/12/12 03:22:24;;;;;;;2.53;2.33;;;16.20;54.70;;;;;;5067238;28;20174;-60
2020/12/12 03:24:50;;;;;;;2.28;2.05;;;16.20;54.70;;;;;;5066987;28;20233;-61
2020/12/12 03:27:15;;;;;;;2.60;2.40;;;16.20;54.70;;;;;;5067287;28;20174;-60
2020/12/12 03:29:41;;;;;;;2.65;2.45;;;16.20;54.70;;;;;;5066353;28;20235;-57
2020/12/12 03:32:10;;;;;;;2.30;2.10;;;16.20;54.70;;;;;;5066961;28;20166;-58
2020/12/12 03:34:36;;;;;;;2.20;2.10;;;16.20;54.70;;;;;;5066928;28;20202;-57
2020/12/12 03:37:02;;;;;;;2.28;2.08;;;16.20;54.70;;;;;;5066997;28;20273;-59
2020/12/12 03:39:28;;;;;;;2.03;1.92;;;16.20;54.70;;;;;;5066741;28;20312;-60
2020/12/12 03:41:53;;;;;;;2.28;2.10;;;16.20;54.70;;;;;;5066650;28;20628;-60
2020/12/12 03:44:19;;;;;;;2.22;2.03;;;16.20;54.80;;;;;;5066686;28;20186;-61
2020/12/12 03:46:44;;;;;;;2.30;2.13;;;16.20;54.70;;;;;;5066755;28;20212;-61
2020/12/12 03:49:10;;;;;;;2.05;1.95;;;16.20;54.70;;;;;;5066563;28;20170;-62
2020/12/12 03:51:35;;;;;;;2.10;2.00;;;16.20;54.70;;;;;;5066643;28;20295;-60
2020/12/12 03:54:01;;;;;;;2.58;2.42;;;16.20;54.70;;;;;;5066610;28;20631;-59
2020/12/12 03:56:26;;;;;;;2.55;2.35;;;16.20;54.80;;;;;;5066314;28;20206;-60
2020/12/12 03:58:52;;;;;;;2.55;2.10;;;16.10;54.70;;;;;;5066491;28;20178;-60
2020/12/12 04:01:17;;;;;;;2.20;2.10;;;16.10;54.70;;;;;;5066541;28;20539;-61
2020/12/12 04:03:43;;;;;;;2.40;2.30;;;16.10;54.70;;;;;;5066939;28;20206;-61
2020/12/12 04:06:08;;;;;;;2.65;2.45;;;16.10;54.80;;;;;;5066625;28;20224;-60
2020/12/12 04:08:34;;;;;;;2.60;2.40;;;16.10;54.80;;;;;;5066637;28;20181;-59
2020/12/12 04:11:01;;;;;;;2.20;2.10;;;16.10;54.80;;;;;;5066021;28;20182;-59
2020/12/12 04:13:27;;;;;;;2.50;2.30;;;16.10;54.80;;;;;;5066449;28;20174;-59
2020/12/12 04:15:53;;;;;;;2.35;2.15;;;16.10;54.80;;;;;;5048412;28;20181;-61
2020/12/12 04:18:18;;;;;;;3.30;2.17;;;16.10;54.80;;;;;;5066209;28;20174;-61
2020/12/12 04:20:44;;;;;;;1.98;1.88;;;16.00;54.70;;;;;;5066385;28;20171;-61
2020/12/12 04:23:09;;;;;;;2.50;2.30;;;16.10;54.80;;;;;;5065946;28;20182;-58
2020/12/12 04:25:35;;;;;;;2.50;2.30;;;16.10;54.80;;;;;;5066053;28;20207;-59
2020/12/12 04:28:00;;;;;;;2.50;2.30;;;16.00;54.70;;;;;;5065708;28;20178;-59
2020/12/12 04:30:26;;;;;;;2.50;2.30;;;16.10;54.80;;;;;;5066392;28;20182;-60
2020/12/12 04:32:51;;;;;;;2.30;2.10;;;16.10;54.80;;;;;;5066008;28;20171;-59
2020/12/12 04:35:17;;;;;;;1.98;1.88;;;16.00;55.30;;;;;;5065812;28;20213;-59
2020/12/12 04:37:42;;;;;;;2.40;2.20;;;16.00;54.70;;;;;;5065269;28;20174;-60
2020/12/12 04:40:10;;;;;;;2.40;2.20;;;16.00;54.70;;;;;;5065687;28;20171;-60
2020/12/12 04:42:36;;;;;;;2.20;2.10;;;16.00;54.70;;;;;;5065769;28;20273;-60
2020/12/12 04:45:02;;;;;;;1.90;1.80;;;16.00;54.70;;;;;;5065485;28;20344;-60
2020/12/12 04:47:28;;;;;;;2.40;2.30;;;16.00;54.70;;;;;;5065464;28;20175;-60
2020/12/12 04:49:53;;;;;;;2.33;2.13;;;16.00;54.80;;;;;;5047628;28;20186;-60
2020/12/12 04:52:23;;;;;;;2.33;2.13;;;16.00;54.80;;;;;;5047442;28;20182;-60
2020/12/12 04:54:49;;;;;;;2.25;2.10;;;16.00;54.80;;;;;;5065286;28;20224;-61
2020/12/12 04:57:15;;;;;;;2.25;2.15;;;16.00;54.90;;;;;;5047988;28;20202;-60
2020/12/12 04:59:42;;;;;;;2.05;1.95;;;15.90;54.70;;;;;;5065301;28;20982;-59
2020/12/12 05:02:12;;;;;;;2.60;2.40;;;16.00;54.80;;;;;;5065363;28;20185;-59
2020/12/12 05:04:38;;;;;;;2.30;2.20;;;16.00;54.80;;;;;;5048179;28;20185;-60
2020/12/12 05:07:04;;;;;;;2.05;1.90;;;16.00;54.80;;;;;;5065246;28;20177;-58
2020/12/12 05:09:29;;;;;;;2.35;2.25;;;15.90;54.70;;;;;;5065044;28;20182;-58
2020/12/12 05:11:55;;;;;;;2.13;2.03;;;15.90;54.80;;;;;;5065297;28;20253;-60
2020/12/12 05:14:20;;;;;;;2.60;2.40;;;15.90;54.80;;;;;;5065153;28;20244;-60
2020/12/12 05:16:46;;;;;;;3.15;2.10;;;16.00;54.80;;;;;;5065126;28;20590;-61
2020/12/12 05:19:14;;;;;;;2.22;2.10;;;15.90;54.90;;;;;;5064845;28;20291;-60
2020/12/12 05:21:50;;;;;;;2.10;2.00;;;15.90;54.80;;;;;;5064992;28;20250;-60
2020/12/12 05:24:16;;;;;;;1.90;1.80;;;15.90;54.80;;;;;;5064668;28;20196;-58
2020/12/12 05:26:42;;;;;;;2.25;2.15;;;15.90;54.80;;;;;;5065218;28;20174;-60
2020/12/12 05:29:08;;;;;;;2.53;2.35;;;15.90;54.80;;;;;;5047131;28;20209;-59
2020/12/12 05:31:35;;;;;;;2.20;2.10;;;15.90;54.80;;;;;;5047409;28;20202;-59
2020/12/12 05:34:11;;;;;;;2.15;2.05;;;15.90;54.80;;;;;;5064725;28;20608;-59
2020/12/12 05:36:38;;;;;;;2.60;2.40;;;15.90;54.80;;;;;;5064270;28;20644;-60
2020/12/12 05:39:05;;;;;;;2.45;2.35;;;15.90;54.90;;;;;;5064456;28;20209;-60
2020/12/12 05:41:31;;;;;;;2.38;2.20;;;15.90;54.90;;;;;;5064488;28;20713;-61
2020/12/12 05:43:56;;;;;;;2.65;2.47;;;15.90;54.80;;;;;;5030364;28;20210;-60
2020/12/12 05:46:22;;;;;;;2.33;2.17;;;15.80;54.80;;;;;;5064550;28;20175;-61
2020/12/12 05:48:48;;;;;;;2.35;2.15;;;15.80;54.80;;;;;;5064481;28;20163;-60
2020/12/12 05:51:14;;;;;;;2.50;2.30;;;15.80;54.80;;;;;;5064167;28;20193;-61
2020/12/12 05:53:43;;;;;;;2.30;2.10;;;15.80;54.80;;;;;;5046444;28;20209;-60
2020/12/12 05:56:12;;;;;;;2.55;2.35;;;15.80;54.80;;;;;;5064079;28;20197;-60
2020/12/12 05:58:39;;;;;;;1.92;1.83;;;15.80;54.80;;;;;;5064562;28;20179;-60
2020/12/12 06:01:05;;;;;;;1.98;1.88;;;15.80;54.90;;;;;;5064283;28;20166;-60
2020/12/12 06:03:32;;;;;;;1.75;1.65;;;15.90;55.00;;;;;;5046386;28;20624;-58
2020/12/12 06:06:04;;;;;;;1.95;1.85;;;15.90;55.20;;;;;;5063957;28;20644;-57
2020/12/12 06:08:37;;;;;;;1.75;1.65;;;16.10;55.20;;;;;;5064278;28;20897;-59
2020/12/12 06:11:07;;;;;;;1.70;1.60;;;16.40;55.00;;;;;;5064063;28;20640;-60
2020/12/12 06:13:36;;;;;;;1.85;1.75;;;16.70;54.60;;;;;;5064192;28;20177;-60
2020/12/12 06:16:03;;;;;;;1.80;1.70;;;17.10;53.90;;;;;;5064260;28;20197;-61
2020/12/12 06:18:41;;;;;;;1.83;1.58;;;17.40;53.10;;;;;;5064190;28;20174;-61
2020/12/12 06:21:08;;;;;;;1.70;1.60;;;17.80;52.40;;;;;;5063823;28;20289;-61
2020/12/12 06:23:39;;;;;;;1.50;1.40;;;18.10;51.80;;;;;;5063955;28;20205;-62
2020/12/12 06:26:08;;;;;;;1.40;1.30;;;18.40;51.40;;;;;;5046996;28;20702;-62
2020/12/12 06:28:41;;;;;;;1.35;1.25;;;18.60;51.00;;;;;;5063945;28;20638;-61
2020/12/12 06:31:08;;;;;;;1.60;1.50;;;18.70;50.80;;;;;;5046309;28;20166;-59
2020/12/12 06:33:53;;;;;;;1.58;1.48;;;18.80;50.70;;;;;;5046066;28;20642;-58
2020/12/12 06:36:32;;;;;;;1.30;1.20;;;18.80;50.60;;;;;;5063969;28;20183;-59
2020/12/12 06:39:30;;;;;;;1.38;1.30;;;18.90;50.80;;;;;;5063982;28;20624;-60
2020/12/12 06:41:58;;;;;;;1.48;1.30;;;18.90;50.70;;;;;;5008256;28;20190;-60
2020/12/12 06:44:30;;;;;;;1.40;1.30;;;18.80;50.80;;;;;;5063704;28;20180;-61
2020/12/12 06:46:56;;;;;;;1.30;1.20;;;18.80;50.90;;;;;;5065866;28;20189;-61
2020/12/12 06:49:21;;;;;;;1.10;1.10;;;18.80;51.00;;;;;;5067623;28;20179;-60
2020/12/12 06:51:51;;;;;;;1.50;1.40;;;18.80;51.00;;;;;;5050118;28;20241;-60
2020/12/12 06:54:17;;;;;;;1.52;1.42;;;18.70;51.10;;;;;;5067557;28;20262;-60
2020/12/12 06:56:42;;;;;;;1.30;1.20;;;18.70;51.20;;;;;;5067578;28;20174;-61
2020/12/12 06:59:30;;;;;;;1.60;1.50;;;18.60;51.30;;;;;;5067635;28;20182;-60
2020/12/12 07:02:00;;;;;;;1.70;1.50;;;18.70;51.20;;;;;;5067563;28;20170;-59
2020/12/12 07:04:29;;;;;;;1.52;1.42;;;18.70;51.40;;;;;;5067589;28;20548;-62
2020/12/12 07:06:59;;;;;;;1.33;1.27;;;18.60;51.30;;;;;;5067577;28;20170;-59
2020/12/12 07:09:26;;;;;;;1.10;1.10;;;18.60;51.40;;;;;;5067713;28;20166;-60
2020/12/12 07:11:52;;;;;;;1.10;1.10;;;18.60;51.50;;;;;;5067181;28;20183;-60
2020/12/12 07:14:18;;;;;;;1.13;1.10;;;18.50;51.60;;;;;;5067364;28;20407;-60
2020/12/12 07:16:43;;;;;;;1.10;1.10;;;18.40;51.80;;;;;;5067119;28;20190;-60
2020/12/12 07:19:10;;;;;;;1.42;1.33;;;18.30;52.00;;;;;;5067419;28;20914;-60
2020/12/12 07:21:40;;;;;;;1.40;1.30;;;18.20;52.10;;;;;;5067224;28;20533;-60
2020/12/12 07:24:05;;;;;;;1.10;1.10;;;18.10;52.60;;;;;;5066696;28;20308;-61
2020/12/12 07:26:31;;;;;;;1.33;1.23;;;18.00;52.50;;;;;;5066978;28;20274;-60
2020/12/12 07:28:57;;;;;;;1.40;1.30;;;18.00;52.60;;;;;;5066913;28;20170;-60
2020/12/12 07:31:22;;;;;;;1.10;1.10;;;17.90;52.70;;;;;;5066953;28;20924;-60
2020/12/12 07:33:48;;;;;;;1.50;1.40;;;17.90;52.80;;;;;;5066774;28;20210;-57
2020/12/12 07:36:14;;;;;;;1.30;1.20;;;17.90;52.80;;;;;;5066556;28;20194;-59
2020/12/12 07:38:40;;;;;;;1.33;1.23;;;17.90;52.80;;;;;;5066636;28;20620;-60
2020/12/12 07:41:11;;;;;;;1.50;1.10;;;17.90;52.70;;;;;;5066512;28;20170;-59
2020/12/12 07:43:54;;;;;;;1.08;1.08;;;18.00;52.70;;;;;;5032284;28;21169;-62
2020/12/12 07:46:20;;;;;;;1.38;1.27;;;18.00;52.60;;;;;;5066610;28;20620;-62
2020/12/12 07:49:00;;;;;;;2.42;1.50;;;18.00;52.80;;;;;;5066799;28;20663;-67
2020/12/12 07:51:26;;;;;;;1.30;1.20;;;18.10;52.80;;;;;;5049150;28;20595;-69
2020/12/12 07:53:51;;;;;;;1.77;1.67;;;18.10;53.00;;;;;;5066553;28;20205;-68
2020/12/12 07:56:22;;;;;;;1.52;1.42;;;18.20;53.10;;;;;;5066612;28;20217;-68
2020/12/12 07:59:02;;;;;;;1.60;1.45;;;18.20;53.20;;;;;;5065901;28;20167;-67
2020/12/12 08:01:27;;;;;;;2.45;1.67;;;18.30;53.20;;;;;;5049103;28;20162;-63
2020/12/12 08:03:53;;;;;;;3.33;2.20;;;18.20;53.20;;;;;;5048985;28;20182;-65
2020/12/12 08:06:18;;;;;;;2.45;1.55;;;18.20;53.50;;;;;;5066317;28;20192;-65
2020/12/12 08:08:52;;;;;;;4.20;1.80;;;18.10;53.80;;;;;;5066533;28;20174;-63
2020/12/12 08:11:18;;;;;;;3.45;1.80;;;18.00;53.90;;;;;;5066670;28;20178;-63
2020/12/12 08:13:43;;;;;;;4.15;2.03;;;17.90;54.20;;;;;;5048131;28;20198;-64
2020/12/12 08:16:14;;;;;;;1.55;1.45;;;17.80;54.40;;;;;;5066029;28;20189;-64
2020/12/12 08:18:39;;;;;;;2.20;1.92;;;17.80;54.60;;;;;;5066130;28;20205;-66
2020/12/12 08:21:14;;;;;;;3.28;1.60;;;17.70;54.70;;;;;;5066123;28;20194;-65
2020/12/12 08:23:40;;;;;;;4.50;2.15;;;17.70;54.80;;;;;;5065575;28;20247;-64
2020/12/12 08:26:06;;;;;;;3.30;1.90;;;17.70;54.80;;;;;;5048180;28;20175;-64
2020/12/12 08:28:33;;;;;;;1.95;1.65;;;17.70;54.90;;;;;;5031595;28;20624;-64
2020/12/12 08:31:14;;;;;;;2.88;2.08;;;17.80;54.80;;;;;;5066117;28;20166;-64
2020/12/12 08:33:40;;;;;;;2.17;1.92;;;17.80;54.80;;;;;;5065909;28;20174;-65
2020/12/12 08:36:17;;;;;;;3.17;1.90;;;17.80;54.80;;;;;;5066010;28;20190;-65
2020/12/12 08:38:50;;;;;;;3.10;2.10;;;17.80;54.70;;;;;;5065738;28;20248;-65
2020/12/12 08:41:16;;;;;;;2.75;1.80;;;17.90;54.70;;;;;;5048366;28;20178;-64
2020/12/12 08:43:43;;;;;;;3.60;2.33;;;17.90;54.70;;;;;;5065752;28;20174;-65
2020/12/12 08:46:08;;;;;;;3.15;2.10;;;18.00;54.70;;;;;;5066050;28;20281;-64
2020/12/12 08:48:35;;;;;;;3.17;2.28;;;18.00;54.60;;;;;;5065833;28;20278;-65
2020/12/12 08:51:02;;;;;;;3.88;1.85;;;18.00;54.60;;;;;;5065572;28;20185;-63
2020/12/12 08:53:30;;;;;;;2.38;2.05;;;18.00;54.60;;;;;;5048012;28;20174;-64
2020/12/12 08:56:19;;;;;;;2.75;2.17;;;18.00;54.50;;;;;;5065413;28;20511;-64
2020/12/12 08:58:53;;;;;;;3.25;2.15;;;18.00;54.60;;;;;;5047578;28;20401;-64
2020/12/12 09:01:28;;;;;;;2.22;1.73;;;17.90;54.70;;;;;;5065260;28;20170;-64
2020/12/12 09:03:55;;;;;;;2.03;1.77;;;17.80;54.80;;;;;;5065478;28;20170;-64
2020/12/12 09:06:21;;;;;;;3.17;1.95;;;17.70;55.00;;;;;;5064921;28;20170;-65
2020/12/12 09:08:47;;;;;;;2.22;2.03;;;17.80;55.10;;;;;;5065066;28;20232;-65
2020/12/12 09:11:16;;;;;;;2.60;2.13;;;17.70;55.10;;;;;;5064028;28;20690;-64
2020/12/12 09:13:42;;;;;;;1.98;1.70;;;17.70;55.10;;;;;;5064991;28;20174;-64
2020/12/12 09:16:08;;;;;;;3.28;2.22;;;17.70;55.10;;;;;;5064881;28;20228;-64
2020/12/12 09:18:54;;;;;;;1.65;1.55;;;17.70;55.10;;;;;;5065037;28;20528;-65
2020/12/12 09:21:20;;;;;;;2.50;2.30;;;17.80;55.00;;;;;;5064207;28;20222;-63
2020/12/12 09:23:45;;;;;;;2.17;1.80;;;17.80;55.00;;;;;;5046793;28;20316;-63
2020/12/12 09:26:11;;;;;;;3.75;2.20;;;17.90;55.00;;;;;;5047179;28;20178;-63
2020/12/12 09:28:37;;;;;;;2.88;2.05;;;17.90;54.90;;;;;;5064962;28;20309;-64
2020/12/12 09:31:03;;;;;;;2.42;1.95;;;17.90;54.80;;;;;;5064913;28;20185;-64
2020/12/12 09:33:28;;;;;;;2.80;2.15;;;17.90;54.80;;;;;;5064604;28;20197;-64
2020/12/12 09:35:54;;;;;;;2.30;2.08;;;17.90;54.90;;;;;;5064657;28;20913;-63
2020/12/12 09:38:19;;;;;;;3.83;2.35;;;17.80;55.00;;;;;;5064419;28;20255;-64
2020/12/12 09:40:49;;;;;;;2.40;2.05;;;17.70;55.10;;;;;;5064558;28;20189;-63
2020/12/12 09:43:16;;;;;;;2.50;2.08;;;17.70;55.30;;;;;;5064556;28;20679;-64
2020/12/12 09:45:42;;;;;;;3.38;2.10;;;17.70;55.40;;;;;;5047357;28;20635;-64
2020/12/12 09:48:08;;;;;;;2.88;2.40;;;17.60;55.40;;;;;;5064734;28;20273;-64
2020/12/12 09:50:35;;;;;;;3.05;1.92;;;17.60;55.40;;;;;;5064990;28;20932;-63
2020/12/12 09:53:01;;;;;;;3.58;2.30;;;17.60;55.40;;;;;;5064507;28;20897;-63
2020/12/12 09:55:27;;;;;;;2.78;2.10;;;17.60;55.30;;;;;;5064498;28;20235;-64
2020/12/12 09:57:52;;;;;;;2.70;2.00;;;17.70;55.30;;;;;;5064487;28;20170;-63
2020/12/12 10:00:18;;;;;;;2.42;2.17;;;17.70;55.30;;;;;;5064385;28;20830;-65
2020/12/12 10:02:43;;;;;;;2.22;2.03;;;17.70;55.20;;;;;;5064324;28;20174;-65
2020/12/12 10:05:09;;;;;;;3.00;2.03;;;17.80;55.10;;;;;;5064149;28;20178;-66
2020/12/12 10:07:34;;;;;;;2.88;2.17;;;17.80;55.10;;;;;;5063929;28;20248;-64
2020/12/12 10:10:00;;;;;;;3.20;2.35;;;17.80;55.20;;;;;;5064291;28;20240;-64
2020/12/12 10:12:25;;;;;;;2.97;2.22;;;17.70;55.20;;;;;;5064076;28;20249;-64
2020/12/12 10:14:51;;;;;;;3.40;2.33;;;17.60;55.30;;;;;;5064178;28;20206;-64
2020/12/12 10:17:16;;;;;;;3.60;2.20;;;17.60;55.50;;;;;;5064189;28;20194;-66
2020/12/12 10:19:42;;;;;;;2.85;2.10;;;17.50;55.60;;;;;;5063976;28;20393;-65
2020/12/12 10:22:07;;;;;;;4.07;2.70;;;17.50;55.60;;;;;;5063427;28;20182;-63
2020/12/12 10:24:33;;;;;;;3.10;2.40;;;17.50;55.60;;;;;;5063920;28;20198;-64
2020/12/12 10:26:59;;;;;;;3.13;2.25;;;17.50;55.50;;;;;;5063896;28;20206;-64
2020/12/12 10:29:24;;;;;;;3.70;2.05;;;17.60;55.50;;;;;;5063963;28;20178;-65
2020/12/12 10:31:50;;;;;;;2.92;2.20;;;17.60;55.50;;;;;;5063928;28;20178;-64
2020/12/12 10:34:15;;;;;;;3.42;2.50;;;17.60;55.40;;;;;;5063696;28;20194;-65
2020/12/12 10:36:41;;;;;;;2.28;2.00;;;17.60;55.30;;;;;;5063699;28;20175;-64
2020/12/12 10:39:08;;;;;;;2.80;2.05;;;17.60;55.30;;;;;;5063971;28;20257;-63
2020/12/12 10:41:34;;;;;;;2.72;2.42;;;17.60;55.40;;;;;;5063452;28;20549;-65
2020/12/12 10:44:00;;;;;;;2.45;2.15;;;17.50;55.50;;;;;;5063605;28;20186;-64
2020/12/12 10:46:25;;;;;;;2.60;2.38;;;17.50;55.70;;;;;;5064005;28;20773;-65
2020/12/12 10:48:51;;;;;;;3.42;2.17;;;17.50;55.80;;;;;;5063876;28;20166;-64
2020/12/12 10:51:16;;;;;;;3.03;2.38;;;17.40;55.80;;;;;;5063684;28;20182;-62
2020/12/12 10:53:42;;;;;;;3.45;2.63;;;17.40;55.80;;;;;;5063567;28;20223;-63
2020/12/12 10:56:08;;;;;;;3.30;2.60;;;17.40;55.70;;;;;;5045996;28;20182;-63
2020/12/12 10:58:33;;;;;;;2.83;2.25;;;17.40;55.70;;;;;;5046191;28;20171;-64
2020/12/12 11:00:59;;;;;;;3.50;2.60;;;17.50;55.70;;;;;;5063844;28;20639;-64
2020/12/12 11:03:24;;;;;;;4.05;2.50;;;17.50;55.60;;;;;;5063707;28;20532;-65
2020/12/12 11:05:50;;;;;;;3.20;2.47;;;17.50;55.50;;;;;;5063574;28;20206;-65
2020/12/12 11:08:15;;;;;;;3.22;2.50;;;17.50;55.50;;;;;;5063678;28;20182;-65
2020/12/12 11:10:41;;;;;;;3.40;2.08;;;17.50;55.60;;;;;;5063891;28;20171;-63
2020/12/12 11:13:07;;;;;;;3.35;2.42;;;17.50;55.80;;;;;;5064140;28;20703;-65
2020/12/12 11:15:32;;;;;;;2.05;1.83;;;17.40;55.90;;;;;;5045642;28;20233;-64
2020/12/12 11:17:59;;;;;;;2.55;2.35;;;17.30;55.90;;;;;;5063215;28;20229;-65
2020/12/12 11:20:25;;;;;;;4.32;2.83;;;17.30;55.90;;;;;;5063311;28;20172;-64
2020/12/12 11:22:50;;;;;;;3.83;2.80;;;17.40;55.90;;;;;;5063464;28;20179;-67
2020/12/12 11:25:16;;;;;;;5.97;3.63;;;17.30;55.80;;;;;;5063229;28;20197;-68
2020/12/12 11:27:44;;;;;;;5.22;3.50;;;17.30;55.70;;;;;;5063596;28;20240;-66
2020/12/12 11:30:11;;;;;;;4.78;3.70;;;17.40;55.60;;;;;;5063475;28;20639;-66
2020/12/12 11:32:37;;;;;;;6.85;3.85;;;17.50;55.70;;;;;;5063711;28;20170;-67
2020/12/12 11:35:19;;;;;;;4.93;2.88;;;17.50;55.50;;;;;;5066525;28;20213;-66
2020/12/12 11:38:14;;;;;;;4.80;2.88;;;17.60;55.50;;;;;;5066923;28;20174;-66
2020/12/12 11:43:45;;;;;;;7.10;4.00;;;17.50;55.50;;;;;;5066355;28;20174;-65
2020/12/12 11:48:44;;;;;;;6.65;3.13;;;17.50;55.70;;;;;;5066685;28;20183;-63
2020/12/12 11:51:10;;;;;;;6.55;2.95;;;17.40;55.80;;;;;;5066929;28;20179;-63
2020/12/12 11:53:35;;;;;;;5.53;3.13;;;17.30;55.90;;;;;;5066460;28;20652;-66
2020/12/12 11:56:01;;;;;;;5.07;2.90;;;17.50;55.90;;;;;;5067080;28;20596;-65
2020/12/12 11:58:26;;;;;;;4.25;2.65;;;17.50;55.70;;;;;;5060225;28;20187;-65
2020/12/12 12:00:52;;;;;;;5.65;2.80;;;17.60;55.70;;;;;;5063426;28;20171;-63
2020/12/12 12:03:17;;;;;;;5.40;2.67;;;17.50;55.80;;;;;;5066262;28;20273;-64
2020/12/12 12:05:44;;;;;;;2.80;2.45;;;17.50;55.70;;;;;;5066528;28;20577;-64
2020/12/12 12:13:34;;;;;;;5.03;2.80;;;17.50;56.00;;;;;;5065877;28;20166;-65
2020/12/12 12:16:00;;;;;;;3.80;2.83;;;17.40;55.90;;;;;;5066331;28;21135;-64
2020/12/12 12:18:25;;;;;;;4.75;2.85;;;17.40;56.10;;;;;;5065907;28;20285;-65
2020/12/12 12:20:51;;;;;;;3.50;2.28;;;17.30;56.10;;;;;;5065835;28;20178;-64
2020/12/12 12:23:16;;;;;;;3.17;2.88;;;17.40;56.10;;;;;;5066084;28;20253;-65
2020/12/12 12:25:42;;;;;;;6.93;3.00;;;17.40;56.10;;;;;;5065604;28;20291;-66
2020/12/12 12:28:08;;;;;;;4.40;2.53;;;17.50;56.10;;;;;;5066334;28;20210;-64
2020/12/12 12:30:33;;;;;;;4.13;2.50;;;17.40;56.70;;;;;;5065548;28;20174;-65
2020/12/12 12:32:59;;;;;;;3.42;2.30;;;17.40;56.10;;;;;;5065729;28;20174;-64
2020/12/12 12:35:24;;;;;;;9.30;3.55;;;17.40;56.20;;;;;;5065759;28;20210;-63
2020/12/12 12:37:50;;;;;;;5.90;2.80;;;17.30;56.20;;;;;;5065774;28;20916;-63
2020/12/12 12:40:15;;;;;;;4.50;2.60;;;17.30;56.90;;;;;;5048092;28;20992;-65
2020/12/12 12:42:41;;;;;;;3.15;2.30;;;17.30;56.50;;;;;;5065500;28;20177;-64
2020/12/12 12:45:06;;;;;;;7.18;2.85;;;17.40;56.40;;;;;;5065180;28;20185;-63
2020/12/12 12:47:32;;;;;;;5.88;2.60;;;17.40;56.30;;;;;;5047509;28;20197;-64
2020/12/12 12:49:57;;;;;;;4.00;2.28;;;17.50;56.30;;;;;;5065389;28;20253;-64
2020/12/12 12:52:23;;;;;;;3.25;2.40;;;17.70;55.90;;;;;;5065526;28;20567;-65
2020/12/12 12:54:49;;;;;;;4.95;2.30;;;18.00;55.30;;;;;;5065321;28;20269;-64
2020/12/12 12:57:14;;;;;;;5.25;2.22;;;18.40;55.00;;;;;;5054705;28;20170;-64